createdAt,value
2023-01-25T00:00:09.262Z,98.35
2023-01-25T00:15:10.400Z,98.72
2023-01-25T00:30:11.491Z,99.46
2023-01-25T00:45:12.303Z,98.83
2023-01-25T01:00:13.194Z,99.04
2023-01-25T01:15:12.854Z,97.89
2023-01-25T01:30:12.976Z,98.31
2023-01-25T01:45:13.547Z,98.04
2023-01-25T02:00:14.141Z,97.27
2023-01-25T02:15:14.830Z,98.52
2023-01-25T02:30:23.803Z,98.10
2023-01-25T02:45:24.442Z,96.78
2023-01-25T03:00:25.445Z,97.41
2023-01-25T03:15:25.589Z,97.72
2023-01-25T03:30:26.220Z,97.83
2023-01-25T03:45:26.824Z,98.21
2023-01-25T04:00:27.366Z,97.58
2023-01-25T04:15:28.854Z,97.78
2023-01-25T04:30:30.162Z,97.27
2023-01-25T04:45:32.630Z,96.64
2023-01-25T05:00:35.211Z,95.38
2023-01-25T05:15:37.494Z,95.38
2023-01-25T05:30:38.115Z,95.49
2023-01-25T05:45:38.661Z,96.59
2023-01-25T06:00:39.277Z,96.49
2023-01-25T06:15:39.411Z,96.07
2023-01-25T06:30:39.989Z,96.17
2023-01-25T06:45:40.998Z,96.38
2023-01-25T07:00:41.641Z,96.55
2023-01-25T07:15:43.075Z,96.76
2023-01-25T07:30:43.698Z,97.70
2023-01-25T07:45:44.261Z,97.75
2023-01-25T08:00:44.851Z,97.55
2023-01-25T08:15:45.389Z,97.86
2023-01-25T08:30:56.402Z,98.49
2023-01-25T08:45:51.196Z,97.97
2023-01-25T09:00:51.773Z,97.75
2023-01-25T09:15:52.385Z,97.75
2023-01-25T09:31:10.733Z,97.86
2023-01-25T09:45:58.510Z,98.02
2023-01-25T10:00:58.657Z,97.86
2023-01-25T10:15:59.398Z,95.56
2023-01-25T10:31:00.429Z,94.10
2023-01-25T10:46:01.369Z,88.37
2023-01-25T11:01:02.588Z,86.63
2023-01-25T11:16:03.219Z,81.62
2023-01-25T11:31:03.874Z,79.64
2023-01-25T11:46:04.830Z,78.49
2023-01-25T12:01:04.992Z,76.72
2023-01-25T12:16:06.079Z,73.48
2023-01-25T12:31:06.289Z,69.96
2023-01-25T12:46:07.316Z,71.64
2023-01-25T13:01:07.919Z,71.22
2023-01-25T13:16:08.502Z,68.92
2023-01-25T13:31:08.700Z,70.10
2023-01-25T13:46:09.665Z,68.32
2023-01-25T14:01:09.919Z,66.03
2023-01-25T14:16:10.539Z,63.10
2023-01-25T14:31:12.124Z,65.95
2023-01-25T14:46:12.194Z,62.08
2023-01-25T15:01:13.289Z,59.05
2023-01-25T15:16:14.394Z,54.79
2023-01-25T15:31:16.380Z,52.39
2023-01-25T15:46:16.927Z,49.56
2023-01-25T16:01:17.522Z,47.89
2023-01-25T16:16:18.517Z,46.87
2023-01-25T16:31:31.279Z,45.51
2023-01-25T16:46:24.192Z,44.78
2023-01-25T17:01:24.861Z,44.67
2023-01-25T17:16:25.006Z,43.73
2023-01-25T17:31:25.700Z,42.56
2023-01-25T17:46:26.255Z,42.26
2023-01-25T18:01:27.395Z,42.58
2023-01-25T18:16:28.401Z,42.89
2023-01-25T18:31:28.585Z,42.60
2023-01-25T18:46:29.237Z,41.63
2023-01-25T19:01:29.837Z,42.07
2023-01-25T19:16:30.364Z,41.55
2023-01-25T19:31:31.008Z,41.76
2023-01-25T19:46:31.719Z,41.44
2023-01-25T20:01:31.751Z,41.34
2023-01-25T20:16:31.802Z,41.34
2023-01-25T20:31:32.462Z,41.13
2023-01-25T20:46:32.535Z,41.13
2023-01-25T21:01:33.113Z,41.44
2023-01-25T21:16:35.040Z,40.19
2023-01-25T21:31:35.619Z,41.34
2023-01-25T21:46:36.135Z,41.76
2023-01-25T22:01:36.363Z,41.55
2023-01-25T22:16:36.944Z,41.99
2023-01-25T22:31:37.168Z,42.82
2023-01-25T22:46:53.213Z,42.80
2023-01-25T23:01:54.799Z,42.09
2023-01-25T23:16:55.410Z,42.30
2023-01-25T23:31:56.031Z,44.59
2023-01-25T23:46:56.684Z,42.91
